createdAt,value
2022-12-31T00:03:34.114Z,100380.25
2022-12-31T00:07:50.410Z,100391.16
2022-12-31T00:12:07.020Z,100394.66
2022-12-31T00:16:28.665Z,100398.19
2022-12-31T00:20:44.939Z,100401.41
2022-12-31T00:25:01.179Z,100395.00
2022-12-31T00:29:17.385Z,100402.19
2022-12-31T00:33:33.605Z,100407.84
2022-12-31T00:37:51.546Z,100419.97
2022-12-31T00:42:07.928Z,100432.44
2022-12-31T00:46:25.379Z,100439.16
2022-12-31T00:50:41.625Z,100432.34
2022-12-31T00:54:58.058Z,100432.22
2022-12-31T00:59:14.204Z,100440.28
2022-12-31T01:03:30.391Z,100435.28
2022-12-31T01:07:46.614Z,100446.87
2022-12-31T01:12:03.730Z,100445.59
2022-12-31T01:16:22.412Z,100443.44
2022-12-31T01:20:40.486Z,100455.91
2022-12-31T01:24:56.696Z,100461.38
2022-12-31T01:29:14.496Z,100463.91
2022-12-31T01:33:30.775Z,100464.63
2022-12-31T01:37:49.468Z,100468.59
2022-12-31T01:42:05.891Z,100472.75
2022-12-31T01:46:25.454Z,100462.75
2022-12-31T01:50:44.567Z,100472.38
2022-12-31T01:55:28.655Z,100461.34
2022-12-31T01:59:45.622Z,100459.38
2022-12-31T02:04:05.604Z,100474.87
2022-12-31T02:08:22.280Z,100459.16
2022-12-31T02:12:38.681Z,100457.03
2022-12-31T02:17:00.693Z,100467.66
2022-12-31T02:21:30.208Z,100474.28
2022-12-31T02:25:55.348Z,100485.72
2022-12-31T02:30:32.471Z,100492.47
2022-12-31T02:35:04.676Z,100488.41
2022-12-31T02:39:21.419Z,100481.41
2022-12-31T02:43:46.006Z,100478.78
2022-12-31T02:48:07.976Z,100461.63
2022-12-31T02:52:49.146Z,100461.56
2022-12-31T02:57:34.142Z,100464.88
2022-12-31T03:02:14.330Z,100457.94
2022-12-31T03:06:31.468Z,100439.97
2022-12-31T03:10:47.655Z,100450.44
2022-12-31T03:15:06.838Z,100449.28
2022-12-31T03:19:41.345Z,100467.28
2022-12-31T03:24:16.061Z,100448.62
2022-12-31T03:28:32.260Z,100445.75
2022-12-31T03:32:49.421Z,100456.75
2022-12-31T03:37:05.575Z,100463.16
2022-12-31T03:41:21.725Z,100451.25
2022-12-31T03:45:38.053Z,100467.13
2022-12-31T03:49:54.362Z,100472.28
2022-12-31T03:54:10.679Z,100456.97
2022-12-31T03:58:26.947Z,100451.91
2022-12-31T04:02:43.132Z,100451.69
2022-12-31T04:06:59.349Z,100460.28
2022-12-31T04:11:20.649Z,100464.41
2022-12-31T04:15:37.244Z,100465.22
2022-12-31T04:19:53.498Z,100470.28
2022-12-31T04:24:09.954Z,100485.72
2022-12-31T04:28:26.316Z,100486.59
2022-12-31T04:32:42.825Z,100503.00
2022-12-31T04:36:59.298Z,100506.31
2022-12-31T04:41:18.247Z,100519.31
2022-12-31T04:45:34.499Z,100517.75
2022-12-31T04:49:50.604Z,100525.25
2022-12-31T04:54:06.890Z,100531.78
2022-12-31T04:58:23.093Z,100527.75
2022-12-31T05:02:39.472Z,100532.88
2022-12-31T05:06:55.812Z,100526.91
2022-12-31T05:11:12.044Z,100524.44
2022-12-31T05:15:28.298Z,100525.72
2022-12-31T05:19:44.443Z,100535.00
2022-12-31T05:24:00.615Z,100550.09
2022-12-31T05:28:17.097Z,100562.53
2022-12-31T05:32:33.759Z,100562.09
2022-12-31T05:36:49.906Z,100556.09
2022-12-31T05:41:07.928Z,100550.25
2022-12-31T05:45:30.333Z,100560.25
2022-12-31T05:49:47.292Z,100562.56
2022-12-31T05:54:03.528Z,100570.38
2022-12-31T05:58:19.623Z,100576.44
2022-12-31T06:02:35.877Z,100569.44
2022-12-31T06:06:52.198Z,100579.53
2022-12-31T06:11:08.370Z,100574.91
2022-12-31T06:15:24.490Z,100566.06
2022-12-31T06:19:40.669Z,100574.75
2022-12-31T06:23:56.874Z,100575.81
2022-12-31T06:28:19.846Z,100576.34
2022-12-31T06:32:36.668Z,100583.97
2022-12-31T06:36:52.953Z,100578.28
2022-12-31T06:41:11.414Z,100576.22
2022-12-31T06:45:28.455Z,100579.37
2022-12-31T06:49:44.831Z,100601.41
2022-12-31T06:54:01.023Z,100590.66
2022-12-31T06:58:18.043Z,100597.63
2022-12-31T07:02:47.009Z,100597.34
2022-12-31T07:07:36.934Z,100612.59
2022-12-31T13:51:19.135Z,100645.34
2022-12-31T13:55:45.249Z,100637.53
2022-12-31T14:00:04.935Z,100650.13
2022-12-31T14:04:47.748Z,100634.59
2022-12-31T14:09:05.051Z,100631.22
2022-12-31T14:14:15.519Z,100632.44
2022-12-31T14:18:46.720Z,100631.69
2022-12-31T14:23:30.012Z,100640.44
2022-12-31T14:27:46.826Z,100642.38
2022-12-31T14:32:20.362Z,100623.78
2022-12-31T14:37:11.434Z,100629.06
2022-12-31T14:41:51.185Z,100640.41
2022-12-31T14:46:27.536Z,100629.87
2022-12-31T14:50:46.374Z,100648.19
2022-12-31T14:55:09.897Z,100647.41
2022-12-31T14:59:28.362Z,100646.47
2022-12-31T15:03:46.326Z,100645.75
2022-12-31T15:08:22.321Z,100658.72
2022-12-31T15:13:06.531Z,100663.81
2022-12-31T15:17:36.639Z,100652.38
2022-12-31T15:22:27.839Z,100660.56
2022-12-31T15:26:53.133Z,100683.47
2022-12-31T15:31:18.518Z,100685.63
2022-12-31T15:35:48.409Z,100689.34
2022-12-31T15:40:25.809Z,100683.69
2022-12-31T15:45:02.384Z,100675.72
2022-12-31T15:49:23.281Z,100678.13
2022-12-31T15:53:52.775Z,100681.66
2022-12-31T15:58:14.468Z,100689.53
2022-12-31T16:02:30.779Z,100700.78
2022-12-31T16:06:50.689Z,100697.09
2022-12-31T16:11:08.866Z,100682.03
2022-12-31T16:15:28.514Z,100686.03
2022-12-31T16:19:48.651Z,100675.62
2022-12-31T16:24:06.397Z,100686.03
2022-12-31T16:28:25.313Z,100688.00
2022-12-31T16:32:42.599Z,100703.69
2022-12-31T16:37:04.498Z,100697.75
2022-12-31T16:41:22.233Z,100688.81
2022-12-31T16:45:38.886Z,100704.91
2022-12-31T16:50:04.234Z,100695.16
2022-12-31T16:54:42.179Z,100706.72
2022-12-31T16:59:06.621Z,100706.47
2022-12-31T17:03:28.464Z,100714.03
2022-12-31T17:07:44.663Z,100709.91
2022-12-31T17:12:16.513Z,100718.94
2022-12-31T17:16:34.281Z,100731.47
2022-12-31T17:20:52.580Z,100723.06
2022-12-31T17:25:09.790Z,100720.78
2022-12-31T17:29:26.798Z,100711.56
2022-12-31T17:33:42.980Z,100705.66
2022-12-31T17:38:18.046Z,100700.00
2022-12-31T17:42:37.099Z,100690.63
2022-12-31T17:46:53.835Z,100695.78
2022-12-31T17:51:10.312Z,100703.22
2022-12-31T17:55:26.810Z,100694.47
2022-12-31T17:59:42.951Z,100689.22
2022-12-31T18:03:59.110Z,100697.78
2022-12-31T18:08:15.334Z,100709.34
2022-12-31T18:12:31.584Z,100721.56
2022-12-31T18:16:48.467Z,100739.16
2022-12-31T18:21:07.825Z,100743.09
2022-12-31T18:25:24.597Z,100741.66
2022-12-31T18:29:40.764Z,100741.66
2022-12-31T18:33:59.243Z,100746.63
2022-12-31T18:38:17.335Z,100757.06
2022-12-31T18:42:33.511Z,100753.28
2022-12-31T18:46:50.923Z,100749.13
2022-12-31T18:51:08.038Z,100745.47
2022-12-31T18:55:39.848Z,100752.91
2022-12-31T18:59:56.277Z,100759.19
2022-12-31T19:04:26.637Z,100752.19
2022-12-31T19:08:43.937Z,100751.12
2022-12-31T19:13:00.117Z,100758.47
2022-12-31T19:17:16.298Z,100750.44
2022-12-31T19:21:32.582Z,100744.19
2022-12-31T19:25:49.520Z,100748.78
2022-12-31T19:30:06.300Z,100734.00
2022-12-31T19:34:22.571Z,100724.91
2022-12-31T19:38:38.700Z,100730.56
2022-12-31T19:42:56.056Z,100732.69
2022-12-31T19:47:13.405Z,100713.19
2022-12-31T19:51:29.545Z,100709.66
2022-12-31T19:55:45.854Z,100710.72
2022-12-31T20:00:02.027Z,100716.13
2022-12-31T20:04:18.462Z,100719.22
2022-12-31T20:08:36.714Z,100728.22
2022-12-31T20:12:52.932Z,100731.28
2022-12-31T20:17:10.743Z,100728.22
2022-12-31T20:21:29.262Z,100728.50
2022-12-31T20:25:45.419Z,100725.72
2022-12-31T20:30:01.638Z,100725.13
2022-12-31T20:34:18.044Z,100722.31
2022-12-31T20:38:34.507Z,100720.94
2022-12-31T20:42:50.641Z,100715.16
2022-12-31T20:47:06.872Z,100717.03
2022-12-31T20:51:24.366Z,100709.09
2022-12-31T20:55:44.573Z,100725.50
2022-12-31T21:00:01.332Z,100735.59
2022-12-31T21:04:17.718Z,100740.12
2022-12-31T21:08:35.175Z,100743.09
2022-12-31T21:12:54.306Z,100749.00
2022-12-31T21:17:10.454Z,100750.25
2022-12-31T21:21:27.350Z,100752.47
2022-12-31T21:25:46.241Z,100746.28
2022-12-31T21:30:19.537Z,100750.50
2022-12-31T21:34:36.133Z,100752.94
2022-12-31T21:38:52.458Z,100744.84
2022-12-31T21:43:10.017Z,100752.56
2022-12-31T21:47:47.676Z,100768.94
2022-12-31T21:52:22.681Z,100766.19
2022-12-31T21:56:38.877Z,100777.31
2022-12-31T22:01:15.540Z,100773.91
2022-12-31T22:05:31.803Z,100766.09
2022-12-31T22:09:48.017Z,100766.56
2022-12-31T22:14:04.175Z,100771.44
2022-12-31T22:18:20.688Z,100757.91
2022-12-31T22:22:36.951Z,100750.97
2022-12-31T22:26:55.732Z,100756.16
2022-12-31T22:31:15.585Z,100750.06
2022-12-31T22:35:31.738Z,100752.69
2022-12-31T22:39:47.963Z,100758.66
2022-12-31T22:44:05.329Z,100766.41
2022-12-31T22:48:21.486Z,100775.47
2022-12-31T22:52:37.802Z,100763.03
2022-12-31T22:56:54.046Z,100758.19
2022-12-31T23:01:34.646Z,100749.03
2022-12-31T23:05:52.709Z,100752.16
2022-12-31T23:10:29.175Z,100744.56
2022-12-31T23:15:04.111Z,100737.31
2022-12-31T23:19:39.059Z,100736.19
2022-12-31T23:23:55.214Z,100736.53
2022-12-31T23:28:18.534Z,100732.37
2022-12-31T23:32:34.719Z,100731.47
2022-12-31T23:36:50.869Z,100732.59
2022-12-31T23:41:18.455Z,100746.97
2022-12-31T23:45:35.502Z,100748.81
2022-12-31T23:49:51.676Z,100748.22
2022-12-31T23:54:08.313Z,100733.78
2022-12-31T23:58:25.155Z,100733.16
